Time;durP1;ratioP1;P1;durP2;ratioP2;P2;SDS_P1;SDS_P2;PMS_P1;PMS_P2;Temp;Humidity;BMP_temperature;BMP_pressure;BME280_temperature;BME280_humidity;BME280_pressure;Samples;Min_cycle;Max_cycle;Signal;HPM_P1;HPM_P2
2024/03/20 00:00:11;;;;;;;53.53;31.25;;;;;;;;;;5012962;28;20041;-69
2024/03/20 00:02:39;;;;;;;55.08;31.88;;;;;;;;;;5012656;28;20075;-69
2024/03/20 00:05:05;;;;;;;59.45;32.08;;;;;;;;;;5012821;28;20021;-69
2024/03/20 00:07:31;;;;;;;52.67;31.88;;;;;;;;;;5012865;28;20033;-68
2024/03/20 00:09:56;;;;;;;50.10;30.75;;;;;;;;;;5012746;28;20084;-67
2024/03/20 00:12:22;;;;;;;52.83;29.38;;;;;;;;;;5012613;28;20092;-67
2024/03/20 00:14:48;;;;;;;54.00;29.98;;;;;;;;;;5012656;28;20083;-67
2024/03/20 00:17:14;;;;;;;49.58;27.50;;;;;;;;;;4994871;28;20037;-61
2024/03/20 00:19:39;;;;;;;53.22;29.75;;;;;;;;;;5013050;28;20409;-61
2024/03/20 00:22:13;;;;;;;47.50;27.10;;;;;;;;;;5013168;28;20038;-61
2024/03/20 00:24:39;;;;;;;55.70;30.27;;;;;;;;;;5013117;28;20026;-61
2024/03/20 00:27:10;;;;;;;50.67;31.65;;;;;;;;;;5013507;28;20067;-63
2024/03/20 00:29:35;;;;;;;54.40;33.60;;;;;;;;;;5013158;28;20042;-61
2024/03/20 00:32:01;;;;;;;102.32;60.33;;;;;;;;;;5012597;28;20034;-66
2024/03/20 00:34:26;;;;;;;40.65;24.75;;;;;;;;;;5011980;28;20038;-65
2024/03/20 00:36:52;;;;;;;47.55;27.00;;;;;;;;;;5012012;28;20045;-66
2024/03/20 00:39:18;;;;;;;48.90;30.48;;;;;;;;;;5012075;28;20034;-61
2024/03/20 00:41:44;;;;;;;58.65;32.80;;;;;;;;;;4994213;28;20068;-61
2024/03/20 00:44:09;;;;;;;54.88;31.15;;;;;;;;;;5011709;28;20724;-61
2024/03/20 00:46:35;;;;;;;52.45;29.30;;;;;;;;;;5012260;28;20109;-61
2024/03/20 00:49:00;;;;;;;43.17;25.42;;;;;;;;;;5012276;28;20046;-61
2024/03/20 00:51:25;;;;;;;48.67;25.50;;;;;;;;;;5012416;28;20033;-61
2024/03/20 00:53:51;;;;;;;54.60;29.95;;;;;;;;;;4998197;28;20080;-61
2024/03/20 00:56:17;;;;;;;61.25;32.42;;;;;;;;;;4994575;28;20034;-61
2024/03/20 00:58:46;;;;;;;69.57;32.88;;;;;;;;;;4994324;28;20037;-65
2024/03/20 01:01:12;;;;;;;61.50;31.67;;;;;;;;;;4994584;28;20038;-65
2024/03/20 01:03:44;;;;;;;68.93;32.15;;;;;;;;;;4994319;28;20357;-65
2024/03/20 01:06:09;;;;;;;53.50;27.58;;;;;;;;;;4994544;28;20041;-67
2024/03/20 01:08:38;;;;;;;46.30;24.45;;;;;;;;;;4994520;28;20030;-68
2024/03/20 01:11:04;;;;;;;38.15;21.92;;;;;;;;;;4976574;28;20019;-67
2024/03/20 01:13:29;;;;;;;46.20;23.40;;;;;;;;;;4994081;28;20125;-67
2024/03/20 01:15:55;;;;;;;47.40;24.27;;;;;;;;;;4993782;28;20066;-67
2024/03/20 01:18:20;;;;;;;49.35;23.98;;;;;;;;;;4994150;28;20040;-62
2024/03/20 01:20:46;;;;;;;46.00;24.02;;;;;;;;;;4994169;28;20038;-62
2024/03/20 01:23:13;;;;;;;42.25;22.58;;;;;;;;;;4994019;28;20038;-62
2024/03/20 01:25:38;;;;;;;36.63;22.10;;;;;;;;;;4994209;28;20027;-61
2024/03/20 01:28:04;;;;;;;35.28;20.73;;;;;;;;;;4993851;28;20081;-62
2024/03/20 01:30:30;;;;;;;36.22;21.42;;;;;;;;;;4976687;28;20031;-62
2024/03/20 01:32:55;;;;;;;42.40;22.92;;;;;;;;;;4976838;28;20080;-62
2024/03/20 01:35:21;;;;;;;32.85;20.50;;;;;;;;;;4993764;28;20121;-63
2024/03/20 01:37:46;;;;;;;36.45;21.58;;;;;;;;;;4993632;28;20061;-62
2024/03/20 01:40:12;;;;;;;39.60;22.13;;;;;;;;;;4996222;28;20100;-62
2024/03/20 01:42:37;;;;;;;36.70;20.23;;;;;;;;;;4997518;28;20034;-62
2024/03/20 01:45:10;;;;;;;35.10;19.90;;;;;;;;;;4997618;28;20402;-62
2024/03/20 01:47:36;;;;;;;32.45;20.67;;;;;;;;;;4997478;28;20060;-62
2024/03/20 01:50:01;;;;;;;39.15;21.30;;;;;;;;;;4976294;28;20502;-62
2024/03/20 01:52:27;;;;;;;38.58;21.58;;;;;;;;;;4978150;28;20035;-62
2024/03/20 01:54:52;;;;;;;36.08;21.67;;;;;;;;;;4978185;28;20062;-68
2024/03/20 01:57:17;;;;;;;35.80;20.98;;;;;;;;;;4978002;28;20053;-63
2024/03/20 01:59:43;;;;;;;36.13;21.08;;;;;;;;;;4977759;28;20114;-63
2024/03/20 02:02:08;;;;;;;35.58;20.40;;;;;;;;;;4977934;28;20065;-63
2024/03/20 02:04:36;;;;;;;33.67;20.10;;;;;;;;;;4977686;28;20077;-62
2024/03/20 02:07:01;;;;;;;34.67;19.67;;;;;;;;;;4977802;28;20461;-62
2024/03/20 02:09:27;;;;;;;32.72;18.83;;;;;;;;;;4977582;28;20038;-68
2024/03/20 02:14:36;;;;;;;31.40;18.52;;;;;;;;;;5014018;28;20056;-62
2024/03/20 02:17:02;;;;;;;32.72;19.45;;;;;;;;;;5016647;28;20461;-62
2024/03/20 02:19:27;;;;;;;32.28;19.55;;;;;;;;;;4998514;28;20037;-61
2024/03/20 02:21:53;;;;;;;32.65;18.77;;;;;;;;;;5015913;28;20034;-61
2024/03/20 02:24:18;;;;;;;33.28;18.63;;;;;;;;;;5016534;28;20010;-62
2024/03/20 02:26:43;;;;;;;30.20;17.85;;;;;;;;;;5015929;28;20506;-62
2024/03/20 02:29:09;;;;;;;29.00;18.10;;;;;;;;;;5016177;28;20076;-62
2024/03/20 02:31:34;;;;;;;30.25;18.52;;;;;;;;;;4998962;28;20361;-62
2024/03/20 02:34:00;;;;;;;29.90;18.27;;;;;;;;;;5016387;28;20428;-62
2024/03/20 02:36:25;;;;;;;32.05;18.83;;;;;;;;;;5015769;28;20030;-62
2024/03/20 02:38:51;;;;;;;27.55;18.27;;;;;;;;;;4998147;28;20500;-63
2024/03/20 02:41:17;;;;;;;28.30;17.25;;;;;;;;;;5015617;28;20084;-62
2024/03/20 02:43:43;;;;;;;27.23;15.95;;;;;;;;;;4998105;28;20026;-62
2024/03/20 02:46:08;;;;;;;26.48;16.63;;;;;;;;;;5015891;28;20101;-62
2024/03/20 02:48:34;;;;;;;27.92;16.58;;;;;;;;;;4997958;28;20040;-63
2024/03/20 02:50:59;;;;;;;29.67;17.45;;;;;;;;;;5014745;28;20022;-62
2024/03/20 02:53:25;;;;;;;30.08;17.73;;;;;;;;;;4997795;28;20029;-62
2024/03/20 02:55:50;;;;;;;30.88;17.30;;;;;;;;;;4997851;28;20034;-62
2024/03/20 02:58:17;;;;;;;27.27;17.27;;;;;;;;;;5015323;28;20464;-62
2024/03/20 03:00:42;;;;;;;30.17;17.55;;;;;;;;;;5015843;28;20037;-62
2024/03/20 03:03:08;;;;;;;27.73;17.65;;;;;;;;;;4998301;28;20042;-61
2024/03/20 03:05:34;;;;;;;28.73;17.83;;;;;;;;;;5015228;28;20050;-60
2024/03/20 03:08:00;;;;;;;33.78;19.75;;;;;;;;;;5015457;28;20032;-60
2024/03/20 03:10:27;;;;;;;43.33;23.77;;;;;;;;;;5015156;28;20388;-61
2024/03/20 03:12:52;;;;;;;43.60;22.60;;;;;;;;;;4997224;28;20099;-61
2024/03/20 03:15:18;;;;;;;35.80;21.08;;;;;;;;;;5015353;28;20030;-61
2024/03/20 03:17:53;;;;;;;33.85;19.65;;;;;;;;;;5015239;28;20068;-61
2024/03/20 03:20:21;;;;;;;28.52;17.48;;;;;;;;;;4981235;28;20041;-60
2024/03/20 03:22:47;;;;;;;24.13;15.85;;;;;;;;;;5015113;28;20030;-60
2024/03/20 03:25:12;;;;;;;22.70;15.57;;;;;;;;;;5014637;28;20548;-60
2024/03/20 03:27:38;;;;;;;23.20;15.85;;;;;;;;;;5015124;28;20022;-60
2024/03/20 03:30:10;;;;;;;21.48;15.25;;;;;;;;;;5013895;28;20464;-60
2024/03/20 03:32:36;;;;;;;22.23;15.68;;;;;;;;;;4997195;28;20034;-60
2024/03/20 03:35:03;;;;;;;23.92;15.35;;;;;;;;;;4997322;28;20041;-60
2024/03/20 03:37:29;;;;;;;22.45;15.13;;;;;;;;;;5014693;28;20044;-59
2024/03/20 03:39:54;;;;;;;28.00;17.08;;;;;;;;;;5014551;28;20034;-59
2024/03/20 03:42:20;;;;;;;21.58;15.73;;;;;;;;;;5014933;28;20034;-59
2024/03/20 03:44:46;;;;;;;24.88;15.98;;;;;;;;;;5014726;28;20029;-60
2024/03/20 03:47:11;;;;;;;28.20;16.30;;;;;;;;;;5014694;28;20021;-60
2024/03/20 03:49:36;;;;;;;24.83;16.25;;;;;;;;;;5014450;28;20030;-60
2024/03/20 03:52:03;;;;;;;29.77;17.70;;;;;;;;;;5015061;28;20490;-60
2024/03/20 03:54:30;;;;;;;25.83;17.98;;;;;;;;;;5014407;28;20113;-62
2024/03/20 03:56:57;;;;;;;27.35;16.75;;;;;;;;;;4997245;28;20072;-62
2024/03/20 03:59:22;;;;;;;30.10;16.95;;;;;;;;;;5014787;28;20026;-62
2024/03/20 04:01:47;;;;;;;27.55;16.85;;;;;;;;;;5014355;28;20080;-61
2024/03/20 04:04:13;;;;;;;28.02;16.98;;;;;;;;;;5014835;28;20468;-61
2024/03/20 04:06:39;;;;;;;25.63;16.85;;;;;;;;;;5014520;28;20053;-62
2024/03/20 04:09:05;;;;;;;24.27;16.52;;;;;;;;;;4997268;28;20037;-62
2024/03/20 04:11:30;;;;;;;26.75;16.80;;;;;;;;;;5014247;28;20037;-62
2024/03/20 04:13:56;;;;;;;27.60;16.95;;;;;;;;;;5013946;28;20042;-61
2024/03/20 04:16:22;;;;;;;26.42;17.20;;;;;;;;;;4996977;28;20060;-62
2024/03/20 04:18:47;;;;;;;28.85;16.45;;;;;;;;;;5014310;28;20055;-62
2024/03/20 04:21:12;;;;;;;24.77;16.63;;;;;;;;;;5013920;28;20037;-62
2024/03/20 04:23:38;;;;;;;32.30;18.75;;;;;;;;;;4996456;28;20022;-62
2024/03/20 04:26:04;;;;;;;50.75;25.92;;;;;;;;;;5014210;28;20032;-62
2024/03/20 04:28:29;;;;;;;56.47;27.10;;;;;;;;;;5014540;28;20026;-62
2024/03/20 04:30:55;;;;;;;25.30;16.95;;;;;;;;;;4996409;28;20030;-62
2024/03/20 04:33:21;;;;;;;34.55;19.95;;;;;;;;;;5014523;28;20041;-63
2024/03/20 04:35:47;;;;;;;88.15;38.88;;;;;;;;;;5014252;28;20072;-63
2024/03/20 04:38:13;;;;;;;61.20;33.92;;;;;;;;;;5013962;28;20030;-63
2024/03/20 04:40:39;;;;;;;56.67;35.20;;;;;;;;;;5013760;28;20041;-63
2024/03/20 04:43:05;;;;;;;48.78;33.30;;;;;;;;;;4996045;28;20034;-63
2024/03/20 04:45:30;;;;;;;39.75;27.98;;;;;;;;;;4996532;28;20353;-63
2024/03/20 04:47:56;;;;;;;34.28;23.67;;;;;;;;;;5013561;28;20034;-63
2024/03/20 04:50:21;;;;;;;28.40;18.90;;;;;;;;;;5011789;28;20029;-63
2024/03/20 04:52:46;;;;;;;22.80;17.27;;;;;;;;;;5012958;28;20413;-64
2024/03/20 04:55:12;;;;;;;23.23;16.63;;;;;;;;;;5013383;28;20057;-63
2024/03/20 04:57:38;;;;;;;29.00;17.00;;;;;;;;;;5013014;28;20034;-63
2024/03/20 05:00:15;;;;;;;23.88;16.27;;;;;;;;;;5012967;28;20496;-68
2024/03/20 05:02:40;;;;;;;24.33;16.20;;;;;;;;;;4995267;28;20058;-65
2024/03/20 05:05:06;;;;;;;27.98;16.80;;;;;;;;;;5013389;28;20100;-63
2024/03/20 05:07:32;;;;;;;33.05;19.40;;;;;;;;;;5013869;28;20026;-62
2024/03/20 05:09:57;;;;;;;34.92;19.55;;;;;;;;;;5013515;28;20441;-63
2024/03/20 05:12:24;;;;;;;29.75;18.80;;;;;;;;;;5013452;28;20042;-63
2024/03/20 05:14:49;;;;;;;29.35;19.05;;;;;;;;;;5015892;28;20030;-64
2024/03/20 05:17:15;;;;;;;30.10;18.02;;;;;;;;;;5017445;28;20034;-61
2024/03/20 05:19:40;;;;;;;31.92;20.55;;;;;;;;;;5017659;28;20034;-61
2024/03/20 05:22:06;;;;;;;27.95;18.35;;;;;;;;;;4999632;28;20038;-62
2024/03/20 05:24:31;;;;;;;29.08;18.17;;;;;;;;;;4999514;28;20025;-61
2024/03/20 05:26:57;;;;;;;28.50;17.90;;;;;;;;;;4999335;28;20042;-61
2024/03/20 05:29:22;;;;;;;26.98;17.42;;;;;;;;;;5016992;28;20050;-61
2024/03/20 05:31:47;;;;;;;29.55;18.60;;;;;;;;;;5017785;28;20030;-61
2024/03/20 05:34:13;;;;;;;28.48;18.23;;;;;;;;;;5023823;23;20099;-61
2024/03/20 05:36:38;;;;;;;32.97;21.27;;;;;;;;;;5056163;22;20475;-64
2024/03/20 05:39:11;;;;;;;38.30;26.73;;;;;;;;;;5062902;22;20060;-65
2024/03/20 05:41:37;;;;;;;44.92;32.05;;;;;;;;;;5015366;28;20404;-65
2024/03/20 05:44:03;;;;;;;35.50;27.50;;;;;;;;;;5016781;28;20033;-65
2024/03/20 05:46:34;;;;;;;41.38;27.65;;;;;;;;;;5016832;28;20487;-65
2024/03/20 05:49:00;;;;;;;34.95;25.63;;;;;;;;;;5015675;28;20037;-65
2024/03/20 05:51:25;;;;;;;29.67;22.52;;;;;;;;;;5016640;28;20038;-65
2024/03/20 05:53:51;;;;;;;33.28;22.83;;;;;;;;;;5015279;28;20073;-65
2024/03/20 05:56:16;;;;;;;29.73;22.55;;;;;;;;;;5016552;28;20030;-64
2024/03/20 05:58:43;;;;;;;29.83;21.80;;;;;;;;;;5016501;28;20018;-64
2024/03/20 06:01:13;;;;;;;32.35;21.30;;;;;;;;;;5016368;28;20040;-64
2024/03/20 06:03:38;;;;;;;27.15;19.63;;;;;;;;;;5016429;28;20018;-64
2024/03/20 06:06:04;;;;;;;27.35;18.60;;;;;;;;;;5016623;28;20415;-64
2024/03/20 06:08:29;;;;;;;30.52;19.60;;;;;;;;;;5016308;28;20056;-64
2024/03/20 06:10:57;;;;;;;27.67;19.08;;;;;;;;;;5016513;28;20018;-64
2024/03/20 06:13:23;;;;;;;26.45;17.80;;;;;;;;;;5016290;28;20030;-64
2024/03/20 06:15:48;;;;;;;25.80;17.23;;;;;;;;;;5016290;28;20033;-65
2024/03/20 06:18:13;;;;;;;38.03;25.85;;;;;;;;;;5016333;28;20033;-65
2024/03/20 06:20:39;;;;;;;28.27;19.50;;;;;;;;;;5016114;28;20021;-64
2024/03/20 06:23:04;;;;;;;33.95;24.48;;;;;;;;;;5016036;28;20108;-63
2024/03/20 06:25:30;;;;;;;31.65;21.45;;;;;;;;;;5015815;28;20460;-64
2024/03/20 06:27:55;;;;;;;27.52;18.27;;;;;;;;;;5016012;28;20045;-64
2024/03/20 06:30:22;;;;;;;27.00;17.65;;;;;;;;;;5016046;28;20018;-64
2024/03/20 06:32:47;;;;;;;24.40;15.95;;;;;;;;;;5015972;28;20439;-64
2024/03/20 06:35:13;;;;;;;23.23;15.40;;;;;;;;;;5015819;28;20021;-64
2024/03/20 06:37:38;;;;;;;23.13;15.00;;;;;;;;;;5014963;28;20468;-64
2024/03/20 06:40:06;;;;;;;28.58;17.05;;;;;;;;;;5013994;28;20054;-64
2024/03/20 06:42:31;;;;;;;31.75;20.98;;;;;;;;;;5016130;28;20044;-64
2024/03/20 06:44:57;;;;;;;28.58;18.35;;;;;;;;;;5031100;28;20104;-64
2024/03/20 06:47:24;;;;;;;31.45;18.05;;;;;;;;;;5014250;28;20033;-64
2024/03/20 06:49:49;;;;;;;26.73;17.65;;;;;;;;;;5013729;28;20476;-64
2024/03/20 06:52:16;;;;;;;27.70;17.27;;;;;;;;;;5014064;28;20041;-64
2024/03/20 06:54:43;;;;;;;25.60;15.95;;;;;;;;;;5013987;28;20427;-64
2024/03/20 06:57:11;;;;;;;21.13;14.48;;;;;;;;;;5014209;28;20160;-64
2024/03/20 06:59:40;;;;;;;19.98;13.88;;;;;;;;;;5014814;28;20405;-59
2024/03/20 07:02:06;;;;;;;19.52;13.73;;;;;;;;;;5014760;28;20030;-59
2024/03/20 07:04:32;;;;;;;20.52;13.85;;;;;;;;;;5040295;23;20068;-63
2024/03/20 07:06:58;;;;;;;24.58;17.33;;;;;;;;;;5020623;28;20033;-64
2024/03/20 07:09:24;;;;;;;23.05;17.10;;;;;;;;;;5037028;28;20029;-64
2024/03/20 07:11:49;;;;;;;29.67;18.42;;;;;;;;;;5037174;28;20044;-64
2024/03/20 07:14:15;;;;;;;27.45;17.00;;;;;;;;;;5055346;28;20108;-63
2024/03/20 07:16:41;;;;;;;24.25;16.55;;;;;;;;;;5020476;28;20036;-63
2024/03/20 07:19:06;;;;;;;21.75;15.13;;;;;;;;;;5054734;28;20036;-63
2024/03/20 07:21:32;;;;;;;16.10;11.48;;;;;;;;;;5055140;28;20033;-63
2024/03/20 07:23:57;;;;;;;21.50;15.02;;;;;;;;;;5036761;28;20033;-63
2024/03/20 07:26:23;;;;;;;19.45;13.45;;;;;;;;;;5036800;28;20025;-63
2024/03/20 07:28:48;;;;;;;17.02;11.98;;;;;;;;;;5054804;28;20048;-63
2024/03/20 07:31:13;;;;;;;15.85;11.88;;;;;;;;;;5054440;28;20158;-63
2024/03/20 07:33:39;;;;;;;13.48;9.80;;;;;;;;;;5054723;28;20036;-64
2024/03/20 07:36:04;;;;;;;14.57;10.35;;;;;;;;;;5019946;28;20037;-63
2024/03/20 07:38:30;;;;;;;17.42;11.98;;;;;;;;;;5054096;28;20033;-63
2024/03/20 07:40:56;;;;;;;16.08;11.45;;;;;;;;;;5054480;28;20452;-63
2024/03/20 07:43:21;;;;;;;13.80;10.80;;;;;;;;;;5054236;28;20024;-63
2024/03/20 07:45:47;;;;;;;13.20;10.25;;;;;;;;;;5054217;28;20025;-64
2024/03/20 07:48:12;;;;;;;10.52;8.23;;;;;;;;;;5036650;28;20033;-59
2024/03/20 07:50:39;;;;;;;10.45;8.40;;;;;;;;;;5054385;28;20035;-59
2024/03/20 07:53:05;;;;;;;9.77;8.45;;;;;;;;;;5054360;28;20021;-59
2024/03/20 07:55:32;;;;;;;9.23;7.38;;;;;;;;;;5054056;28;20041;-59
2024/03/20 07:57:58;;;;;;;10.57;8.60;;;;;;;;;;5054585;28;20039;-59
2024/03/20 08:00:32;;;;;;;10.95;8.88;;;;;;;;;;5053943;28;20112;-59
2024/03/20 08:02:58;;;;;;;9.45;7.75;;;;;;;;;;5036134;28;20029;-59
2024/03/20 08:05:24;;;;;;;12.20;9.18;;;;;;;;;;5053715;28;20045;-59
2024/03/20 08:07:49;;;;;;;11.02;8.68;;;;;;;;;;5054134;28;20112;-59
2024/03/20 08:10:14;;;;;;;13.27;9.27;;;;;;;;;;5036100;28;20470;-59
2024/03/20 08:12:41;;;;;;;12.98;9.88;;;;;;;;;;5054065;28;20036;-59
2024/03/20 08:15:07;;;;;;;12.95;10.25;;;;;;;;;;5035900;28;20444;-59
2024/03/20 08:17:32;;;;;;;12.23;9.80;;;;;;;;;;5054008;28;20057;-59
2024/03/20 08:19:58;;;;;;;12.75;9.48;;;;;;;;;;5053942;28;20036;-59
2024/03/20 08:22:24;;;;;;;13.02;8.73;;;;;;;;;;5053582;28;20463;-59
2024/03/20 08:24:50;;;;;;;14.32;9.90;;;;;;;;;;5036181;28;20447;-59
2024/03/20 08:27:15;;;;;;;9.95;7.85;;;;;;;;;;5053645;28;20112;-59
2024/03/20 08:29:40;;;;;;;14.55;10.98;;;;;;;;;;5036277;28;20017;-59
2024/03/20 08:32:06;;;;;;;16.85;11.45;;;;;;;;;;5053865;28;20040;-59
2024/03/20 08:34:31;;;;;;;22.65;12.38;;;;;;;;;;5053817;28;20107;-59
2024/03/20 08:36:57;;;;;;;15.70;11.27;;;;;;;;;;5035613;28;20044;-59
2024/03/20 08:39:22;;;;;;;11.32;7.82;;;;;;;;;;5035625;28;20025;-59
2024/03/20 08:41:48;;;;;;;11.27;8.63;;;;;;;;;;5053247;28;20479;-59
2024/03/20 08:44:14;;;;;;;11.65;8.45;;;;;;;;;;5053188;28;20096;-59
2024/03/20 08:46:41;;;;;;;12.52;9.73;;;;;;;;;;5053418;28;20021;-59
2024/03/20 08:49:08;;;;;;;15.95;11.70;;;;;;;;;;5020112;28;20079;-60
2024/03/20 08:51:33;;;;;;;12.32;8.95;;;;;;;;;;5057779;28;20124;-59
2024/03/20 08:53:59;;;;;;;14.77;10.98;;;;;;;;;;5039591;28;20064;-59
2024/03/20 08:56:24;;;;;;;15.25;11.10;;;;;;;;;;5057957;28;20045;-59
2024/03/20 08:58:50;;;;;;;12.88;8.15;;;;;;;;;;5023038;28;20438;-60
2024/03/20 09:01:16;;;;;;;9.85;8.13;;;;;;;;;;5039802;28;20024;-60
2024/03/20 09:03:42;;;;;;;8.68;7.32;;;;;;;;;;5057275;28;20100;-59
2024/03/20 09:06:07;;;;;;;11.38;8.30;;;;;;;;;;5035886;28;20080;-59
2024/03/20 09:08:33;;;;;;;10.93;8.48;;;;;;;;;;5037530;28;20065;-59
2024/03/20 09:10:58;;;;;;;13.27;10.77;;;;;;;;;;5035861;28;20083;-59
2024/03/20 09:13:24;;;;;;;10.10;8.57;;;;;;;;;;5037106;28;20083;-59
2024/03/20 09:15:49;;;;;;;11.38;8.32;;;;;;;;;;5037396;28;20032;-59
2024/03/20 09:18:14;;;;;;;11.27;8.20;;;;;;;;;;5037551;28;20160;-59
2024/03/20 09:20:41;;;;;;;15.90;10.90;;;;;;;;;;5037062;28;20021;-59
2024/03/20 09:23:07;;;;;;;14.52;11.50;;;;;;;;;;5036929;28;20053;-59
2024/03/20 09:25:33;;;;;;;10.05;7.15;;;;;;;;;;5036492;28;20462;-59
2024/03/20 09:28:00;;;;;;;9.90;7.50;;;;;;;;;;5035958;28;20032;-59
2024/03/20 09:30:25;;;;;;;11.18;8.27;;;;;;;;;;5037395;28;20148;-60
2024/03/20 09:32:50;;;;;;;10.52;8.15;;;;;;;;;;5036835;28;20072;-60
2024/03/20 09:35:16;;;;;;;12.38;10.02;;;;;;;;;;5036163;28;20036;-60
2024/03/20 09:37:41;;;;;;;13.13;9.80;;;;;;;;;;5035447;28;20044;-60
2024/03/20 09:40:10;;;;;;;9.10;7.57;;;;;;;;;;5036971;28;20040;-59
2024/03/20 09:42:36;;;;;;;8.90;7.28;;;;;;;;;;5036816;28;20037;-59
2024/03/20 09:45:03;;;;;;;8.98;7.82;;;;;;;;;;5036596;28;20488;-59
2024/03/20 09:47:31;;;;;;;11.98;6.72;;;;;;;;;;5035249;28;20423;-59
2024/03/20 09:49:59;;;;;;;10.07;6.97;;;;;;;;;;5036742;28;20036;-59
2024/03/20 09:52:25;;;;;;;9.40;7.43;;;;;;;;;;5036737;28;20041;-59
2024/03/20 09:54:54;;;;;;;9.38;6.80;;;;;;;;;;5036373;28;20034;-59
2024/03/20 09:57:24;;;;;;;7.47;6.60;;;;;;;;;;5036442;28;20041;-59
2024/03/20 09:59:52;;;;;;;8.07;6.70;;;;;;;;;;5034563;28;20030;-59
2024/03/20 10:02:18;;;;;;;9.07;6.72;;;;;;;;;;5036511;28;20185;-59
2024/03/20 10:04:44;;;;;;;9.32;7.32;;;;;;;;;;5042831;28;20037;-59
2024/03/20 10:07:13;;;;;;;9.05;6.80;;;;;;;;;;5056232;28;20036;-59
2024/03/20 10:09:41;;;;;;;10.18;7.45;;;;;;;;;;5056592;28;20029;-60
2024/03/20 10:12:07;;;;;;;11.02;7.15;;;;;;;;;;5055975;28;20147;-59
2024/03/20 10:14:34;;;;;;;7.70;6.40;;;;;;;;;;5038097;28;20048;-59
2024/03/20 10:17:11;;;;;;;8.18;5.75;;;;;;;;;;5055942;28;20033;-59
2024/03/20 10:19:37;;;;;;;7.25;5.85;;;;;;;;;;5038060;28;20131;-59
2024/03/20 10:22:03;;;;;;;10.75;6.97;;;;;;;;;;5055784;28;20514;-59
2024/03/20 10:24:31;;;;;;;12.35;6.90;;;;;;;;;;5056052;28;20075;-59
2024/03/20 10:26:56;;;;;;;13.23;8.38;;;;;;;;;;5055723;28;20435;-63
2024/03/20 10:29:24;;;;;;;9.90;6.70;;;;;;;;;;5055691;28;20514;-64
2024/03/20 10:31:50;;;;;;;7.22;5.60;;;;;;;;;;5037833;28;20518;-63
2024/03/20 10:34:16;;;;;;;9.80;6.07;;;;;;;;;;5055611;28;20033;-63
2024/03/20 10:36:43;;;;;;;8.63;6.15;;;;;;;;;;5055535;28;20479;-63
2024/03/20 10:39:17;;;;;;;10.70;7.63;;;;;;;;;;5055509;28;20451;-63
2024/03/20 10:41:44;;;;;;;10.00;5.63;;;;;;;;;;5055417;28;20033;-63
2024/03/20 10:44:13;;;;;;;9.70;6.45;;;;;;;;;;5064006;22;20519;-63
2024/03/20 10:46:40;;;;;;;8.82;6.88;;;;;;;;;;5037805;28;20467;-63
2024/03/20 10:49:05;;;;;;;12.70;8.40;;;;;;;;;;5055281;28;20113;-64
2024/03/20 10:51:32;;;;;;;11.32;8.73;;;;;;;;;;5055313;28;20498;-64
2024/03/20 10:54:10;;;;;;;11.57;7.72;;;;;;;;;;5068190;22;20049;-59
2024/03/20 10:56:42;;;;;;;11.57;7.88;;;;;;;;;;5052533;28;20048;-59
2024/03/20 10:59:12;;;;;;;7.80;5.68;;;;;;;;;;5073852;22;20416;-64
2024/03/20 11:01:37;;;;;;;6.88;4.97;;;;;;;;;;5063297;22;20087;-59
2024/03/20 11:04:03;;;;;;;5.82;4.57;;;;;;;;;;5054196;23;20511;-59
2024/03/20 11:06:31;;;;;;;8.45;6.25;;;;;;;;;;5049749;23;20148;-64
2024/03/20 11:09:06;;;;;;;7.28;5.18;;;;;;;;;;5034148;28;20079;-64
2024/03/20 11:11:32;;;;;;;6.72;6.03;;;;;;;;;;5034372;28;20026;-63
2024/03/20 11:13:57;;;;;;;8.73;5.75;;;;;;;;;;5034952;28;20037;-63
2024/03/20 11:16:23;;;;;;;8.73;6.78;;;;;;;;;;5035175;28;20053;-63
2024/03/20 11:18:56;;;;;;;9.20;7.22;;;;;;;;;;5050301;28;20092;-63
2024/03/20 11:21:22;;;;;;;11.40;7.25;;;;;;;;;;5035021;28;20037;-63
2024/03/20 11:23:47;;;;;;;8.95;6.40;;;;;;;;;;5034040;28;20038;-63
2024/03/20 11:26:13;;;;;;;8.20;6.50;;;;;;;;;;5034730;28;20052;-63
2024/03/20 11:28:44;;;;;;;7.93;5.38;;;;;;;;;;5034916;28;20025;-63
2024/03/20 11:31:10;;;;;;;9.98;6.68;;;;;;;;;;5035121;28;20087;-63
2024/03/20 11:33:36;;;;;;;9.07;6.97;;;;;;;;;;5035112;28;20037;-63
2024/03/20 11:36:02;;;;;;;11.40;7.65;;;;;;;;;;5034507;28;20017;-63
2024/03/20 11:38:29;;;;;;;12.75;9.45;;;;;;;;;;5035027;28;20048;-63
2024/03/20 11:40:58;;;;;;;14.02;9.18;;;;;;;;;;5033516;28;20543;-63
2024/03/20 11:43:26;;;;;;;8.70;6.85;;;;;;;;;;5033146;28;20121;-63
2024/03/20 11:45:52;;;;;;;8.70;6.43;;;;;;;;;;5033461;28;20080;-63
2024/03/20 11:48:17;;;;;;;8.57;6.32;;;;;;;;;;5034557;28;20037;-63
2024/03/20 11:50:44;;;;;;;8.13;5.85;;;;;;;;;;5052641;22;20037;-63
2024/03/20 11:53:42;;;;;;;6.65;5.85;;;;;;;;;;5092004;22;20094;-59
2024/03/20 11:56:09;;;;;;;9.27;6.50;;;;;;;;;;5061031;22;20044;-59
2024/03/20 11:58:35;;;;;;;9.00;6.95;;;;;;;;;;5074274;28;20078;-63
2024/03/20 12:01:04;;;;;;;8.98;5.63;;;;;;;;;;5074288;28;20028;-64
2024/03/20 12:03:30;;;;;;;6.95;4.97;;;;;;;;;;5073945;28;20111;-63
2024/03/20 12:06:11;;;;;;;7.57;6.20;;;;;;;;;;5074463;28;20116;-63
2024/03/20 12:08:37;;;;;;;6.22;4.85;;;;;;;;;;5074477;28;20186;-63
2024/03/20 12:11:21;;;;;;;6.22;5.07;;;;;;;;;;5073825;28;20025;-64
2024/03/20 12:13:46;;;;;;;9.48;7.22;;;;;;;;;;5074431;28;20029;-63
2024/03/20 12:16:12;;;;;;;12.75;8.48;;;;;;;;;;5074360;28;20469;-63
2024/03/20 12:18:38;;;;;;;11.88;7.20;;;;;;;;;;5074028;28;20423;-63
2024/03/20 12:21:04;;;;;;;8.32;6.35;;;;;;;;;;5074008;28;20059;-63
2024/03/20 12:23:30;;;;;;;10.07;7.53;;;;;;;;;;5073713;28;20040;-64
2024/03/20 12:25:56;;;;;;;7.90;6.30;;;;;;;;;;5073720;28;20112;-63
2024/03/20 12:28:21;;;;;;;12.15;9.02;;;;;;;;;;5073622;28;20459;-63
2024/03/20 12:30:49;;;;;;;10.15;7.55;;;;;;;;;;5072735;28;20078;-63
2024/03/20 12:33:14;;;;;;;11.48;7.80;;;;;;;;;;5073639;28;20462;-63
2024/03/20 12:35:39;;;;;;;9.90;7.43;;;;;;;;;;5073619;28;20025;-63
2024/03/20 12:38:05;;;;;;;10.00;7.40;;;;;;;;;;5073583;28;20111;-63
2024/03/20 12:40:31;;;;;;;10.20;6.70;;;;;;;;;;5073552;28;20458;-63
2024/03/20 12:42:56;;;;;;;7.88;5.97;;;;;;;;;;5072210;28;20033;-63
2024/03/20 12:45:22;;;;;;;8.38;5.85;;;;;;;;;;5074038;28;20110;-63
2024/03/20 12:47:47;;;;;;;8.65;6.53;;;;;;;;;;5073499;28;20024;-63
2024/03/20 12:50:13;;;;;;;9.60;7.18;;;;;;;;;;5073743;28;20025;-63
2024/03/20 12:52:40;;;;;;;15.55;8.43;;;;;;;;;;5073635;28;20028;-63
2024/03/20 12:55:08;;;;;;;12.57;8.00;;;;;;;;;;5072146;28;20421;-63
2024/03/20 12:57:35;;;;;;;10.45;6.72;;;;;;;;;;5073285;28;20067;-63
2024/03/20 13:00:01;;;;;;;9.70;7.18;;;;;;;;;;5073327;28;20078;-63
2024/03/20 13:02:28;;;;;;;9.55;8.05;;;;;;;;;;5072339;28;20036;-63
2024/03/20 13:04:54;;;;;;;12.02;9.57;;;;;;;;;;5073854;28;20052;-64
2024/03/20 13:07:20;;;;;;;14.23;9.23;;;;;;;;;;5073274;28;20033;-63
2024/03/20 13:09:50;;;;;;;14.25;9.40;;;;;;;;;;5073579;28;20146;-63
2024/03/20 13:12:15;;;;;;;14.65;8.93;;;;;;;;;;5055297;28;20070;-63
2024/03/20 13:14:41;;;;;;;14.50;7.60;;;;;;;;;;5073110;28;20087;-64
2024/03/20 13:17:13;;;;;;;12.77;8.10;;;;;;;;;;5073172;28;20042;-63
2024/03/20 13:19:39;;;;;;;14.48;8.15;;;;;;;;;;5071897;28;20111;-63
2024/03/20 13:22:12;;;;;;;15.45;8.70;;;;;;;;;;5073077;28;20531;-63
2024/03/20 13:24:39;;;;;;;18.02;10.13;;;;;;;;;;5073128;28;20029;-63
2024/03/20 13:27:08;;;;;;;17.60;9.55;;;;;;;;;;5073427;28;20033;-63
2024/03/20 13:29:38;;;;;;;20.35;11.75;;;;;;;;;;5071776;28;20459;-63
2024/03/20 13:32:04;;;;;;;18.30;10.98;;;;;;;;;;5071829;28;20123;-63
2024/03/20 13:34:31;;;;;;;15.48;8.55;;;;;;;;;;5073860;28;20060;-63
2024/03/20 13:36:56;;;;;;;13.95;9.02;;;;;;;;;;5077201;28;20039;-63
2024/03/20 13:39:37;;;;;;;16.45;11.48;;;;;;;;;;5076907;28;20115;-63
2024/03/20 13:42:09;;;;;;;20.05;12.70;;;;;;;;;;5076848;28;20040;-63
2024/03/20 13:44:38;;;;;;;21.17;13.05;;;;;;;;;;5077137;28;20020;-63
2024/03/20 13:47:04;;;;;;;18.88;11.48;;;;;;;;;;5077112;28;20500;-63
2024/03/20 13:49:29;;;;;;;13.23;9.52;;;;;;;;;;5075295;28;20128;-63
2024/03/20 13:51:57;;;;;;;25.63;14.60;;;;;;;;;;5076415;28;20107;-63
2024/03/20 13:54:22;;;;;;;16.17;9.63;;;;;;;;;;5076397;28;20056;-64
2024/03/20 13:56:47;;;;;;;15.45;8.93;;;;;;;;;;5074961;28;20076;-63
2024/03/20 13:59:16;;;;;;;13.82;9.02;;;;;;;;;;5076627;28;20426;-63
2024/03/20 14:01:41;;;;;;;13.32;8.77;;;;;;;;;;5076760;28;20120;-63
2024/03/20 14:04:07;;;;;;;14.82;8.50;;;;;;;;;;5076522;28;20119;-64
2024/03/20 14:06:32;;;;;;;14.15;8.73;;;;;;;;;;5058279;28;20051;-64
2024/03/20 14:08:58;;;;;;;13.18;8.48;;;;;;;;;;5076169;28;20363;-63
2024/03/20 14:11:24;;;;;;;11.48;8.32;;;;;;;;;;5074792;28;20414;-63
2024/03/20 14:13:50;;;;;;;13.30;9.25;;;;;;;;;;5073244;28;20110;-63
2024/03/20 14:16:18;;;;;;;15.38;9.88;;;;;;;;;;5076563;28;20009;-63
2024/03/20 14:18:45;;;;;;;14.90;10.20;;;;;;;;;;5076198;28;20057;-63
2024/03/20 14:21:12;;;;;;;14.18;9.63;;;;;;;;;;5075510;28;20032;-63